sensor_id;sensor_type;location;lat;lon;timestamp;P1;durP1;ratioP1;P2;durP2;ratioP2
49858;SDS011;35756;52.346;13.622;2022-09-20T00:00:22;8.40;;;2.67;;
49858;SDS011;35756;52.346;13.622;2022-09-20T00:02:47;7.03;;;2.60;;
49858;SDS011;35756;52.346;13.622;2022-09-20T00:05:12;4.22;;;2.25;;
49858;SDS011;35756;52.346;13.622;2022-09-20T00:07:38;4.57;;;2.22;;
49858;SDS011;35756;52.346;13.622;2022-09-20T00:10:03;5.10;;;2.33;;
49858;SDS011;35756;52.346;13.622;2022-09-20T00:12:29;6.15;;;2.22;;
49858;SDS011;35756;52.346;13.622;2022-09-20T00:14:54;4.57;;;2.25;;
49858;SDS011;35756;52.346;13.622;2022-09-20T00:17:19;6.10;;;2.33;;
49858;SDS011;35756;52.346;13.622;2022-09-20T00:19:44;8.65;;;2.70;;
49858;SDS011;35756;52.346;13.622;2022-09-20T00:22:10;4.28;;;2.40;;
49858;SDS011;35756;52.346;13.622;2022-09-20T00:24:36;4.57;;;2.00;;
49858;SDS011;35756;52.346;13.622;2022-09-20T00:27:02;5.93;;;2.33;;
49858;SDS011;35756;52.346;13.622;2022-09-20T00:29:28;4.68;;;2.47;;
49858;SDS011;35756;52.346;13.622;2022-09-20T00:31:53;7.90;;;2.78;;
49858;SDS011;35756;52.346;13.622;2022-09-20T00:34:18;4.22;;;2.15;;
49858;SDS011;35756;52.346;13.622;2022-09-20T00:39:27;5.00;;;2.15;;
49858;SDS011;35756;52.346;13.622;2022-09-20T00:41:53;4.68;;;2.08;;
49858;SDS011;35756;52.346;13.622;2022-09-20T00:47:29;7.55;;;2.50;;
49858;SDS011;35756;52.346;13.622;2022-09-20T00:50:45;5.97;;;2.00;;
49858;SDS011;35756;52.346;13.622;2022-09-20T00:52:50;6.15;;;2.28;;
49858;SDS011;35756;52.346;13.622;2022-09-20T00:55:18;3.70;;;2.00;;
49858;SDS011;35756;52.346;13.622;2022-09-20T00:57:44;4.15;;;1.90;;
49858;SDS011;35756;52.346;13.622;2022-09-20T01:00:10;5.07;;;1.90;;
49858;SDS011;35756;52.346;13.622;2022-09-20T01:02:38;5.50;;;1.95;;
49858;SDS011;35756;52.346;13.622;2022-09-20T01:05:06;7.75;;;2.15;;
49858;SDS011;35756;52.346;13.622;2022-09-20T01:07:31;4.07;;;1.80;;
49858;SDS011;35756;52.346;13.622;2022-09-20T01:09:58;3.22;;;2.00;;
49858;SDS011;35756;52.346;13.622;2022-09-20T01:12:25;3.22;;;2.08;;
49858;SDS011;35756;52.346;13.622;2022-09-20T01:14:51;5.22;;;2.28;;
49858;SDS011;35756;52.346;13.622;2022-09-20T01:17:18;4.50;;;1.90;;
49858;SDS011;35756;52.346;13.622;2022-09-20T01:20:00;4.13;;;2.20;;
49858;SDS011;35756;52.346;13.622;2022-09-20T01:22:57;4.68;;;2.08;;
49858;SDS011;35756;52.346;13.622;2022-09-20T01:25:51;4.40;;;2.33;;
49858;SDS011;35756;52.346;13.622;2022-09-20T01:28:18;3.58;;;2.33;;
49858;SDS011;35756;52.346;13.622;2022-09-20T01:30:46;3.33;;;2.35;;
49858;SDS011;35756;52.346;13.622;2022-09-20T01:36:25;3.13;;;2.08;;
49858;SDS011;35756;52.346;13.622;2022-09-20T01:39:12;3.00;;;2.15;;
49858;SDS011;35756;52.346;13.622;2022-09-20T01:41:57;6.00;;;2.20;;
49858;SDS011;35756;52.346;13.622;2022-09-20T01:44:34;3.45;;;1.95;;
49858;SDS011;35756;52.346;13.622;2022-09-20T01:47:20;3.75;;;2.08;;
49858;SDS011;35756;52.346;13.622;2022-09-20T01:52:46;5.85;;;2.30;;
49858;SDS011;35756;52.346;13.622;2022-09-20T01:58:20;3.63;;;1.83;;
49858;SDS011;35756;52.346;13.622;2022-09-20T02:03:47;7.40;;;2.25;;
49858;SDS011;35756;52.346;13.622;2022-09-20T02:06:23;3.17;;;2.10;;
49858;SDS011;35756;52.346;13.622;2022-09-20T02:09:14;3.58;;;2.20;;
49858;SDS011;35756;52.346;13.622;2022-09-20T02:12:16;6.97;;;2.20;;
49858;SDS011;35756;52.346;13.622;2022-09-20T02:14:51;4.15;;;2.00;;
49858;SDS011;35756;52.346;13.622;2022-09-20T02:31:22;5.15;;;2.45;;
49858;SDS011;35756;52.346;13.622;2022-09-20T02:36:47;3.67;;;2.33;;
49858;SDS011;35756;52.346;13.622;2022-09-20T02:39:20;7.18;;;2.28;;
49858;SDS011;35756;52.346;13.622;2022-09-20T02:41:58;3.78;;;2.33;;
49858;SDS011;35756;52.346;13.622;2022-09-20T02:47:34;3.38;;;2.05;;
49858;SDS011;35756;52.346;13.622;2022-09-20T02:56:00;5.90;;;2.13;;
49858;SDS011;35756;52.346;13.622;2022-09-20T02:58:40;6.55;;;2.17;;
49858;SDS011;35756;52.346;13.622;2022-09-20T03:01:30;5.18;;;2.00;;
49858;SDS011;35756;52.346;13.622;2022-09-20T03:06:51;5.78;;;2.30;;
49858;SDS011;35756;52.346;13.622;2022-09-20T03:09:34;4.38;;;2.10;;
49858;SDS011;35756;52.346;13.622;2022-09-20T03:14:44;4.13;;;2.30;;
49858;SDS011;35756;52.346;13.622;2022-09-20T03:25:42;3.38;;;2.25;;
49858;SDS011;35756;52.346;13.622;2022-09-20T03:36:56;4.88;;;3.13;;
49858;SDS011;35756;52.346;13.622;2022-09-20T03:39:30;5.38;;;2.20;;
49858;SDS011;35756;52.346;13.622;2022-09-20T03:47:29;3.42;;;1.85;;
49858;SDS011;35756;52.346;13.622;2022-09-20T03:50:08;5.45;;;2.15;;
49858;SDS011;35756;52.346;13.622;2022-09-20T03:52:56;2.92;;;2.00;;
49858;SDS011;35756;52.346;13.622;2022-09-20T03:55:37;5.57;;;2.25;;
49858;SDS011;35756;52.346;13.622;2022-09-20T04:03:42;3.92;;;2.17;;
49858;SDS011;35756;52.346;13.622;2022-09-20T04:07:01;3.10;;;2.08;;
49858;SDS011;35756;52.346;13.622;2022-09-20T04:15:04;5.60;;;2.47;;
49858;SDS011;35756;52.346;13.622;2022-09-20T04:23:30;4.65;;;2.35;;
49858;SDS011;35756;52.346;13.622;2022-09-20T04:26:00;5.05;;;2.53;;
49858;SDS011;35756;52.346;13.622;2022-09-20T04:28:27;3.83;;;2.20;;
49858;SDS011;35756;52.346;13.622;2022-09-20T04:31:26;6.45;;;2.85;;
49858;SDS011;35756;52.346;13.622;2022-09-20T04:33:57;3.30;;;2.38;;
49858;SDS011;35756;52.346;13.622;2022-09-20T04:36:28;6.93;;;2.67;;
49858;SDS011;35756;52.346;13.622;2022-09-20T04:38:58;7.43;;;3.08;;
49858;SDS011;35756;52.346;13.622;2022-09-20T04:50:26;7.88;;;2.60;;
49858;SDS011;35756;52.346;13.622;2022-09-20T04:53:20;7.70;;;2.60;;
49858;SDS011;35756;52.346;13.622;2022-09-20T04:58:37;11.73;;;2.90;;
49858;SDS011;35756;52.346;13.622;2022-09-20T05:06:49;6.75;;;2.45;;
49858;SDS011;35756;52.346;13.622;2022-09-20T05:09:39;6.72;;;2.50;;
49858;SDS011;35756;52.346;13.622;2022-09-20T05:15:03;5.40;;;2.70;;
49858;SDS011;35756;52.346;13.622;2022-09-20T05:23:02;6.18;;;2.88;;
49858;SDS011;35756;52.346;13.622;2022-09-20T05:25:39;4.90;;;2.80;;
49858;SDS011;35756;52.346;13.622;2022-09-20T05:30:44;6.38;;;3.10;;
49858;SDS011;35756;52.346;13.622;2022-09-20T05:33:14;4.55;;;2.53;;
49858;SDS011;35756;52.346;13.622;2022-09-20T05:38:30;8.88;;;2.88;;
49858;SDS011;35756;52.346;13.622;2022-09-20T05:41:06;5.55;;;2.83;;
49858;SDS011;35756;52.346;13.622;2022-09-20T05:43:56;6.78;;;3.15;;
49858;SDS011;35756;52.346;13.622;2022-09-20T05:46:38;5.07;;;2.65;;
49858;SDS011;35756;52.346;13.622;2022-09-20T05:49:25;6.10;;;2.90;;
49858;SDS011;35756;52.346;13.622;2022-09-20T05:52:13;5.22;;;2.60;;
49858;SDS011;35756;52.346;13.622;2022-09-20T05:54:56;5.10;;;2.85;;
49858;SDS011;35756;52.346;13.622;2022-09-20T05:57:35;9.35;;;3.00;;
49858;SDS011;35756;52.346;13.622;2022-09-20T06:00:08;6.57;;;3.17;;
49858;SDS011;35756;52.346;13.622;2022-09-20T06:02:45;7.28;;;3.03;;
49858;SDS011;35756;52.346;13.622;2022-09-20T06:05:15;3.50;;;2.70;;
49858;SDS011;35756;52.346;13.622;2022-09-20T06:18:24;6.97;;;3.45;;
49858;SDS011;35756;52.346;13.622;2022-09-20T06:20:59;8.23;;;3.60;;
49858;SDS011;35756;52.346;13.622;2022-09-20T06:23:31;6.10;;;2.83;;
49858;SDS011;35756;52.346;13.622;2022-09-20T06:26:00;6.55;;;4.30;;
49858;SDS011;35756;52.346;13.622;2022-09-20T06:28:34;9.10;;;5.57;;
49858;SDS011;35756;52.346;13.622;2022-09-20T06:31:05;9.23;;;3.55;;
49858;SDS011;35756;52.346;13.622;2022-09-20T06:33:32;8.30;;;4.50;;
49858;SDS011;35756;52.346;13.622;2022-09-20T06:36:09;7.32;;;4.00;;
49858;SDS011;35756;52.346;13.622;2022-09-20T06:39:03;6.68;;;3.72;;
49858;SDS011;35756;52.346;13.622;2022-09-20T06:42:10;5.93;;;2.97;;
49858;SDS011;35756;52.346;13.622;2022-09-20T06:44:36;6.82;;;3.08;;
49858;SDS011;35756;52.346;13.622;2022-09-20T06:47:05;7.35;;;2.75;;
49858;SDS011;35756;52.346;13.622;2022-09-20T06:49:34;6.53;;;3.17;;
49858;SDS011;35756;52.346;13.622;2022-09-20T06:52:00;4.70;;;2.80;;
49858;SDS011;35756;52.346;13.622;2022-09-20T06:54:26;5.13;;;2.63;;
49858;SDS011;35756;52.346;13.622;2022-09-20T06:56:51;9.95;;;2.92;;
49858;SDS011;35756;52.346;13.622;2022-09-20T06:59:17;7.40;;;3.42;;
49858;SDS011;35756;52.346;13.622;2022-09-20T07:01:43;4.65;;;2.50;;
49858;SDS011;35756;52.346;13.622;2022-09-20T07:04:08;5.88;;;2.75;;
49858;SDS011;35756;52.346;13.622;2022-09-20T07:06:34;11.70;;;3.05;;
49858;SDS011;35756;52.346;13.622;2022-09-20T07:08:59;3.92;;;2.50;;
49858;SDS011;35756;52.346;13.622;2022-09-20T07:11:25;5.75;;;2.80;;
49858;SDS011;35756;52.346;13.622;2022-09-20T07:13:54;4.15;;;2.40;;
49858;SDS011;35756;52.346;13.622;2022-09-20T07:16:22;6.35;;;2.70;;
49858;SDS011;35756;52.346;13.622;2022-09-20T07:18:47;4.97;;;2.17;;
49858;SDS011;35756;52.346;13.622;2022-09-20T07:21:16;5.85;;;2.42;;
49858;SDS011;35756;52.346;13.622;2022-09-20T07:23:42;3.38;;;2.17;;
49858;SDS011;35756;52.346;13.622;2022-09-20T07:26:17;6.57;;;2.10;;
49858;SDS011;35756;52.346;13.622;2022-09-20T07:28:44;5.00;;;2.20;;
49858;SDS011;35756;52.346;13.622;2022-09-20T07:31:09;4.55;;;2.35;;
49858;SDS011;35756;52.346;13.622;2022-09-20T07:33:34;4.05;;;2.25;;
49858;SDS011;35756;52.346;13.622;2022-09-20T07:36:00;4.07;;;2.10;;
49858;SDS011;35756;52.346;13.622;2022-09-20T07:38:26;4.57;;;2.25;;
49858;SDS011;35756;52.346;13.622;2022-09-20T07:40:58;4.60;;;2.10;;
49858;SDS011;35756;52.346;13.622;2022-09-20T07:43:24;3.65;;;2.15;;
49858;SDS011;35756;52.346;13.622;2022-09-20T07:45:50;4.00;;;2.00;;
49858;SDS011;35756;52.346;13.622;2022-09-20T07:48:18;6.70;;;2.40;;
49858;SDS011;35756;52.346;13.622;2022-09-20T07:50:49;3.97;;;2.40;;
49858;SDS011;35756;52.346;13.622;2022-09-20T07:53:15;4.35;;;2.10;;
49858;SDS011;35756;52.346;13.622;2022-09-20T07:55:40;4.63;;;1.90;;
49858;SDS011;35756;52.346;13.622;2022-09-20T07:58:05;4.63;;;2.00;;
49858;SDS011;35756;52.346;13.622;2022-09-20T08:00:30;3.20;;;2.08;;
49858;SDS011;35756;52.346;13.622;2022-09-20T08:02:56;3.92;;;1.90;;
49858;SDS011;35756;52.346;13.622;2022-09-20T08:05:23;5.95;;;1.90;;
49858;SDS011;35756;52.346;13.622;2022-09-20T08:07:48;4.20;;;2.00;;
49858;SDS011;35756;52.346;13.622;2022-09-20T08:10:13;5.68;;;1.88;;
49858;SDS011;35756;52.346;13.622;2022-09-20T08:12:38;2.83;;;1.92;;
49858;SDS011;35756;52.346;13.622;2022-09-20T08:15:05;4.28;;;2.10;;
49858;SDS011;35756;52.346;13.622;2022-09-20T08:17:31;6.68;;;2.10;;
49858;SDS011;35756;52.346;13.622;2022-09-20T08:19:56;4.72;;;2.05;;
49858;SDS011;35756;52.346;13.622;2022-09-20T08:22:22;4.63;;;1.95;;
49858;SDS011;35756;52.346;13.622;2022-09-20T08:24:47;1.88;;;1.50;;
49858;SDS011;35756;52.346;13.622;2022-09-20T08:27:13;4.88;;;1.73;;
49858;SDS011;35756;52.346;13.622;2022-09-20T08:29:38;5.80;;;1.90;;
49858;SDS011;35756;52.346;13.622;2022-09-20T08:32:04;5.28;;;1.70;;
49858;SDS011;35756;52.346;13.622;2022-09-20T08:34:29;3.53;;;1.50;;
49858;SDS011;35756;52.346;13.622;2022-09-20T08:36:55;5.80;;;1.60;;
49858;SDS011;35756;52.346;13.622;2022-09-20T08:39:20;5.60;;;1.70;;
49858;SDS011;35756;52.346;13.622;2022-09-20T08:41:47;3.92;;;1.30;;
49858;SDS011;35756;52.346;13.622;2022-09-20T08:46:51;2.60;;;1.50;;
49858;SDS011;35756;52.346;13.622;2022-09-20T08:49:39;3.22;;;1.50;;
49858;SDS011;35756;52.346;13.622;2022-09-20T08:52:05;3.13;;;1.48;;
49858;SDS011;35756;52.346;13.622;2022-09-20T08:54:31;3.45;;;1.42;;
49858;SDS011;35756;52.346;13.622;2022-09-20T08:56:57;3.35;;;1.25;;
49858;SDS011;35756;52.346;13.622;2022-09-20T08:59:29;3.60;;;1.45;;
49858;SDS011;35756;52.346;13.622;2022-09-20T09:01:55;7.00;;;1.85;;
49858;SDS011;35756;52.346;13.622;2022-09-20T09:04:21;3.95;;;1.67;;
49858;SDS011;35756;52.346;13.622;2022-09-20T09:06:48;2.83;;;1.45;;
49858;SDS011;35756;52.346;13.622;2022-09-20T09:09:24;5.65;;;1.63;;
49858;SDS011;35756;52.346;13.622;2022-09-20T09:11:51;2.67;;;1.40;;
49858;SDS011;35756;52.346;13.622;2022-09-20T09:14:36;4.13;;;1.63;;
49858;SDS011;35756;52.346;13.622;2022-09-20T09:17:13;5.05;;;2.08;;
49858;SDS011;35756;52.346;13.622;2022-09-20T09:19:59;2.55;;;1.48;;
49858;SDS011;35756;52.346;13.622;2022-09-20T09:22:41;5.10;;;2.00;;
49858;SDS011;35756;52.346;13.622;2022-09-20T09:27:34;5.07;;;1.90;;
49858;SDS011;35756;52.346;13.622;2022-09-20T09:29:59;5.15;;;1.73;;
49858;SDS011;35756;52.346;13.622;2022-09-20T09:32:26;7.55;;;2.20;;
49858;SDS011;35756;52.346;13.622;2022-09-20T09:34:53;2.95;;;1.75;;
49858;SDS011;35756;52.346;13.622;2022-09-20T09:37:27;5.25;;;1.67;;
49858;SDS011;35756;52.346;13.622;2022-09-20T09:40:13;3.05;;;1.55;;
49858;SDS011;35756;52.346;13.622;2022-09-20T09:42:47;3.42;;;1.83;;
49858;SDS011;35756;52.346;13.622;2022-09-20T09:48:15;2.90;;;1.40;;
49858;SDS011;35756;52.346;13.622;2022-09-20T09:50:44;3.20;;;1.70;;
49858;SDS011;35756;52.346;13.622;2022-09-20T09:53:10;1.98;;;1.48;;
49858;SDS011;35756;52.346;13.622;2022-09-20T10:01:05;3.92;;;1.52;;
49858;SDS011;35756;52.346;13.622;2022-09-20T10:03:59;3.25;;;1.30;;
49858;SDS011;35756;52.346;13.622;2022-09-20T10:06:31;3.88;;;1.25;;
49858;SDS011;35756;52.346;13.622;2022-09-20T10:12:09;3.73;;;1.30;;
49858;SDS011;35756;52.346;13.622;2022-09-20T10:14:54;4.05;;;1.45;;
49858;SDS011;35756;52.346;13.622;2022-09-20T10:23:11;3.80;;;1.30;;
49858;SDS011;35756;52.346;13.622;2022-09-20T10:25:47;3.55;;;1.48;;
49858;SDS011;35756;52.346;13.622;2022-09-20T10:28:24;3.47;;;1.52;;
49858;SDS011;35756;52.346;13.622;2022-09-20T10:31:29;4.00;;;1.58;;
49858;SDS011;35756;52.346;13.622;2022-09-20T10:34:18;3.60;;;1.55;;
49858;SDS011;35756;52.346;13.622;2022-09-20T10:37:10;4.93;;;1.40;;
49858;SDS011;35756;52.346;13.622;2022-09-20T10:39:42;4.63;;;1.67;;
49858;SDS011;35756;52.346;13.622;2022-09-20T10:42:24;2.58;;;1.63;;
49858;SDS011;35756;52.346;13.622;2022-09-20T10:45:35;4.35;;;2.13;;
49858;SDS011;35756;52.346;13.622;2022-09-20T10:48:11;4.00;;;2.25;;
49858;SDS011;35756;52.346;13.622;2022-09-20T10:50:54;3.55;;;1.70;;
49858;SDS011;35756;52.346;13.622;2022-09-20T10:53:35;5.15;;;2.05;;
49858;SDS011;35756;52.346;13.622;2022-09-20T10:59:08;5.78;;;2.10;;
49858;SDS011;35756;52.346;13.622;2022-09-20T11:02:00;6.38;;;2.30;;
49858;SDS011;35756;52.346;13.622;2022-09-20T11:04:48;6.03;;;2.22;;
49858;SDS011;35756;52.346;13.622;2022-09-20T11:09:59;3.28;;;1.75;;
49858;SDS011;35756;52.346;13.622;2022-09-20T11:12:35;6.75;;;2.67;;
49858;SDS011;35756;52.346;13.622;2022-09-20T11:17:57;3.97;;;1.90;;
49858;SDS011;35756;52.346;13.622;2022-09-20T11:20:35;4.85;;;2.25;;
49858;SDS011;35756;52.346;13.622;2022-09-20T11:23:05;4.72;;;2.05;;
49858;SDS011;35756;52.346;13.622;2022-09-20T11:25:46;5.55;;;2.30;;
49858;SDS011;35756;52.346;13.622;2022-09-20T11:29:00;4.72;;;2.33;;
49858;SDS011;35756;52.346;13.622;2022-09-20T11:33:42;3.28;;;2.30;;
49858;SDS011;35756;52.346;13.622;2022-09-20T11:36:12;5.40;;;2.63;;
49858;SDS011;35756;52.346;13.622;2022-09-20T11:41:28;5.70;;;2.78;;
49858;SDS011;35756;52.346;13.622;2022-09-20T11:43:55;6.03;;;2.95;;
49858;SDS011;35756;52.346;13.622;2022-09-20T11:46:28;6.22;;;2.33;;
49858;SDS011;35756;52.346;13.622;2022-09-20T11:49:02;3.92;;;1.90;;
49858;SDS011;35756;52.346;13.622;2022-09-20T11:54:25;1.23;;;0.88;;
49858;SDS011;35756;52.346;13.622;2022-09-20T11:56:57;4.75;;;1.65;;
49858;SDS011;35756;52.346;13.622;2022-09-20T11:59:36;8.15;;;2.10;;
49858;SDS011;35756;52.346;13.622;2022-09-20T12:02:19;5.90;;;1.40;;
49858;SDS011;35756;52.346;13.622;2022-09-20T12:04:48;3.80;;;1.15;;
49858;SDS011;35756;52.346;13.622;2022-09-20T12:07:24;3.53;;;0.93;;
49858;SDS011;35756;52.346;13.622;2022-09-20T12:09:51;0.70;;;0.70;;
49858;SDS011;35756;52.346;13.622;2022-09-20T12:12:27;2.28;;;0.80;;
49858;SDS011;35756;52.346;13.622;2022-09-20T12:28:34;1.55;;;1.05;;
49858;SDS011;35756;52.346;13.622;2022-09-20T12:34:03;1.58;;;1.10;;
49858;SDS011;35756;52.346;13.622;2022-09-20T12:36:35;2.30;;;1.08;;
49858;SDS011;35756;52.346;13.622;2022-09-20T12:41:48;2.53;;;1.20;;
49858;SDS011;35756;52.346;13.622;2022-09-20T12:46:55;1.52;;;0.90;;
49858;SDS011;35756;52.346;13.622;2022-09-20T12:49:26;2.80;;;0.95;;
49858;SDS011;35756;52.346;13.622;2022-09-20T12:52:22;1.50;;;0.93;;
49858;SDS011;35756;52.346;13.622;2022-09-20T12:55:25;1.63;;;1.50;;
49858;SDS011;35756;52.346;13.622;2022-09-20T12:57:52;1.35;;;1.10;;
49858;SDS011;35756;52.346;13.622;2022-09-20T13:00:27;1.75;;;1.05;;
49858;SDS011;35756;52.346;13.622;2022-09-20T13:03:00;1.70;;;0.80;;
49858;SDS011;35756;52.346;13.622;2022-09-20T13:05:31;1.77;;;1.00;;
49858;SDS011;35756;52.346;13.622;2022-09-20T13:13:45;2.22;;;1.30;;
49858;SDS011;35756;52.346;13.622;2022-09-20T13:16:17;3.75;;;1.67;;
49858;SDS011;35756;52.346;13.622;2022-09-20T13:18:46;3.42;;;1.70;;
49858;SDS011;35756;52.346;13.622;2022-09-20T13:21:12;4.45;;;2.40;;
49858;SDS011;35756;52.346;13.622;2022-09-20T13:23:43;14.85;;;9.95;;
49858;SDS011;35756;52.346;13.622;2022-09-20T13:26:13;6.97;;;4.47;;
49858;SDS011;35756;52.346;13.622;2022-09-20T13:28:41;7.38;;;4.80;;
49858;SDS011;35756;52.346;13.622;2022-09-20T13:33:46;4.28;;;2.13;;
49858;SDS011;35756;52.346;13.622;2022-09-20T13:36:11;5.05;;;2.97;;
49858;SDS011;35756;52.346;13.622;2022-09-20T13:38:37;5.30;;;2.97;;
49858;SDS011;35756;52.346;13.622;2022-09-20T13:41:04;3.50;;;2.35;;
49858;SDS011;35756;52.346;13.622;2022-09-20T13:43:40;3.45;;;2.28;;
49858;SDS011;35756;52.346;13.622;2022-09-20T13:46:13;6.13;;;4.05;;
49858;SDS011;35756;52.346;13.622;2022-09-20T13:48:45;4.50;;;2.78;;
49858;SDS011;35756;52.346;13.622;2022-09-20T13:51:17;3.58;;;1.90;;
49858;SDS011;35756;52.346;13.622;2022-09-20T13:53:44;4.65;;;1.92;;
49858;SDS011;35756;52.346;13.622;2022-09-20T13:56:16;3.90;;;1.90;;
49858;SDS011;35756;52.346;13.622;2022-09-20T13:58:42;2.17;;;1.45;;
49858;SDS011;35756;52.346;13.622;2022-09-20T14:01:18;2.60;;;2.05;;
49858;SDS011;35756;52.346;13.622;2022-09-20T14:03:45;1.52;;;1.30;;
49858;SDS011;35756;52.346;13.622;2022-09-20T14:06:12;2.15;;;0.82;;
49858;SDS011;35756;52.346;13.622;2022-09-20T14:08:45;1.75;;;1.20;;
49858;SDS011;35756;52.346;13.622;2022-09-20T14:11:25;2.10;;;1.02;;
49858;SDS011;35756;52.346;13.622;2022-09-20T14:13:52;1.00;;;0.90;;
49858;SDS011;35756;52.346;13.622;2022-09-20T14:16:19;1.20;;;0.90;;
49858;SDS011;35756;52.346;13.622;2022-09-20T14:18:48;1.50;;;1.10;;
49858;SDS011;35756;52.346;13.622;2022-09-20T14:21:16;1.10;;;0.90;;
49858;SDS011;35756;52.346;13.622;2022-09-20T14:23:48;0.80;;;0.80;;
49858;SDS011;35756;52.346;13.622;2022-09-20T14:28:41;1.60;;;0.80;;
49858;SDS011;35756;52.346;13.622;2022-09-20T14:31:11;1.00;;;0.90;;
49858;SDS011;35756;52.346;13.622;2022-09-20T14:33:39;2.30;;;1.00;;
49858;SDS011;35756;52.346;13.622;2022-09-20T14:36:11;0.80;;;0.80;;
49858;SDS011;35756;52.346;13.622;2022-09-20T14:38:38;0.88;;;0.80;;
49858;SDS011;35756;52.346;13.622;2022-09-20T14:41:03;1.75;;;1.10;;
49858;SDS011;35756;52.346;13.622;2022-09-20T14:43:29;1.23;;;1.13;;
49858;SDS011;35756;52.346;13.622;2022-09-20T14:45:57;3.40;;;0.90;;
49858;SDS011;35756;52.346;13.622;2022-09-20T14:53:40;3.03;;;1.30;;
49858;SDS011;35756;52.346;13.622;2022-09-20T14:56:08;0.90;;;0.85;;
49858;SDS011;35756;52.346;13.622;2022-09-20T15:01:32;1.05;;;0.80;;
49858;SDS011;35756;52.346;13.622;2022-09-20T15:03:59;1.38;;;0.88;;
49858;SDS011;35756;52.346;13.622;2022-09-20T15:06:30;1.58;;;0.93;;
49858;SDS011;35756;52.346;13.622;2022-09-20T15:08:55;1.15;;;0.70;;
49858;SDS011;35756;52.346;13.622;2022-09-20T15:11:23;2.40;;;1.20;;
49858;SDS011;35756;52.346;13.622;2022-09-20T15:13:49;2.22;;;0.88;;
49858;SDS011;35756;52.346;13.622;2022-09-20T15:16:15;1.15;;;0.85;;
49858;SDS011;35756;52.346;13.622;2022-09-20T15:18:41;1.65;;;0.98;;
49858;SDS011;35756;52.346;13.622;2022-09-20T15:21:07;2.13;;;0.98;;
49858;SDS011;35756;52.346;13.622;2022-09-20T15:23:34;1.95;;;1.20;;
49858;SDS011;35756;52.346;13.622;2022-09-20T15:26:00;5.78;;;1.17;;
49858;SDS011;35756;52.346;13.622;2022-09-20T15:28:26;3.47;;;1.17;;
49858;SDS011;35756;52.346;13.622;2022-09-20T15:30:51;1.67;;;1.00;;
49858;SDS011;35756;52.346;13.622;2022-09-20T15:33:18;3.10;;;1.23;;
49858;SDS011;35756;52.346;13.622;2022-09-20T15:35:44;1.88;;;1.08;;
49858;SDS011;35756;52.346;13.622;2022-09-20T15:38:10;2.92;;;1.05;;
49858;SDS011;35756;52.346;13.622;2022-09-20T15:40:40;2.88;;;0.95;;
49858;SDS011;35756;52.346;13.622;2022-09-20T15:43:06;3.05;;;1.23;;
49858;SDS011;35756;52.346;13.622;2022-09-20T15:45:59;1.45;;;1.25;;
49858;SDS011;35756;52.346;13.622;2022-09-20T15:48:51;3.28;;;1.50;;
49858;SDS011;35756;52.346;13.622;2022-09-20T15:51:41;3.67;;;1.55;;
49858;SDS011;35756;52.346;13.622;2022-09-20T15:54:12;2.80;;;1.40;;
49858;SDS011;35756;52.346;13.622;2022-09-20T15:56:38;1.73;;;1.33;;
49858;SDS011;35756;52.346;13.622;2022-09-20T15:59:07;1.67;;;1.13;;
49858;SDS011;35756;52.346;13.622;2022-09-20T16:01:34;3.05;;;1.42;;
49858;SDS011;35756;52.346;13.622;2022-09-20T16:04:19;5.25;;;1.80;;
49858;SDS011;35756;52.346;13.622;2022-09-20T16:06:45;2.05;;;1.58;;
49858;SDS011;35756;52.346;13.622;2022-09-20T16:09:13;2.67;;;1.60;;
49858;SDS011;35756;52.346;13.622;2022-09-20T16:11:38;2.88;;;1.58;;
49858;SDS011;35756;52.346;13.622;2022-09-20T16:14:04;3.20;;;1.75;;
49858;SDS011;35756;52.346;13.622;2022-09-20T16:16:33;3.63;;;1.45;;
49858;SDS011;35756;52.346;13.622;2022-09-20T16:18:59;3.47;;;1.55;;
49858;SDS011;35756;52.346;13.622;2022-09-20T16:21:45;2.63;;;1.60;;
49858;SDS011;35756;52.346;13.622;2022-09-20T16:24:11;2.83;;;1.60;;
49858;SDS011;35756;52.346;13.622;2022-09-20T16:26:36;3.13;;;1.52;;
49858;SDS011;35756;52.346;13.622;2022-09-20T16:29:02;2.40;;;1.70;;
49858;SDS011;35756;52.346;13.622;2022-09-20T16:31:36;3.33;;;1.77;;
49858;SDS011;35756;52.346;13.622;2022-09-20T16:36:34;2.78;;;1.80;;
49858;SDS011;35756;52.346;13.622;2022-09-20T16:39:00;5.50;;;2.20;;
49858;SDS011;35756;52.346;13.622;2022-09-20T16:41:25;3.58;;;2.47;;
49858;SDS011;35756;52.346;13.622;2022-09-20T16:43:52;3.20;;;2.83;;
49858;SDS011;35756;52.346;13.622;2022-09-20T16:46:18;2.47;;;2.08;;
49858;SDS011;35756;52.346;13.622;2022-09-20T16:48:44;2.92;;;2.00;;
49858;SDS011;35756;52.346;13.622;2022-09-20T16:51:16;2.25;;;1.80;;
49858;SDS011;35756;52.346;13.622;2022-09-20T16:53:42;3.25;;;2.17;;
49858;SDS011;35756;52.346;13.622;2022-09-20T16:56:15;5.88;;;3.00;;
49858;SDS011;35756;52.346;13.622;2022-09-20T16:58:41;5.13;;;3.17;;
49858;SDS011;35756;52.346;13.622;2022-09-20T17:01:07;6.47;;;3.88;;
49858;SDS011;35756;52.346;13.622;2022-09-20T17:03:33;7.45;;;3.35;;
49858;SDS011;35756;52.346;13.622;2022-09-20T17:06:02;4.45;;;2.42;;
49858;SDS011;35756;52.346;13.622;2022-09-20T17:08:29;4.40;;;2.72;;
49858;SDS011;35756;52.346;13.622;2022-09-20T17:10:58;4.45;;;2.60;;
49858;SDS011;35756;52.346;13.622;2022-09-20T17:13:24;3.88;;;2.13;;
49858;SDS011;35756;52.346;13.622;2022-09-20T17:15:58;3.17;;;2.03;;
49858;SDS011;35756;52.346;13.622;2022-09-20T17:18:27;3.00;;;1.90;;
49858;SDS011;35756;52.346;13.622;2022-09-20T17:20:52;3.22;;;2.10;;
49858;SDS011;35756;52.346;13.622;2022-09-20T17:23:17;3.92;;;2.42;;
49858;SDS011;35756;52.346;13.622;2022-09-20T17:25:43;4.93;;;2.30;;
49858;SDS011;35756;52.346;13.622;2022-09-20T17:28:09;4.72;;;2.70;;
49858;SDS011;35756;52.346;13.622;2022-09-20T17:30:34;3.58;;;2.45;;
49858;SDS011;35756;52.346;13.622;2022-09-20T17:33:00;4.20;;;2.35;;
49858;SDS011;35756;52.346;13.622;2022-09-20T17:35:25;5.28;;;2.75;;
49858;SDS011;35756;52.346;13.622;2022-09-20T17:37:52;4.40;;;2.85;;
49858;SDS011;35756;52.346;13.622;2022-09-20T17:40:17;5.20;;;2.40;;
49858;SDS011;35756;52.346;13.622;2022-09-20T17:42:42;4.97;;;2.50;;
49858;SDS011;35756;52.346;13.622;2022-09-20T17:45:09;5.50;;;3.00;;
49858;SDS011;35756;52.346;13.622;2022-09-20T17:47:34;4.20;;;2.65;;
49858;SDS011;35756;52.346;13.622;2022-09-20T17:50:00;4.28;;;2.95;;
49858;SDS011;35756;52.346;13.622;2022-09-20T17:52:25;5.63;;;2.65;;
49858;SDS011;35756;52.346;13.622;2022-09-20T17:54:50;5.43;;;2.50;;
49858;SDS011;35756;52.346;13.622;2022-09-20T17:57:16;4.53;;;2.65;;
49858;SDS011;35756;52.346;13.622;2022-09-20T17:59:41;4.68;;;3.13;;
49858;SDS011;35756;52.346;13.622;2022-09-20T18:02:07;4.32;;;3.35;;
49858;SDS011;35756;52.346;13.622;2022-09-20T18:04:32;5.97;;;4.18;;
49858;SDS011;35756;52.346;13.622;2022-09-20T18:06:58;5.63;;;3.85;;
49858;SDS011;35756;52.346;13.622;2022-09-20T18:09:25;8.23;;;4.50;;
49858;SDS011;35756;52.346;13.622;2022-09-20T18:11:51;7.15;;;4.57;;
49858;SDS011;35756;52.346;13.622;2022-09-20T18:14:21;5.90;;;3.58;;
49858;SDS011;35756;52.346;13.622;2022-09-20T18:16:50;5.60;;;3.70;;
49858;SDS011;35756;52.346;13.622;2022-09-20T18:19:16;6.38;;;3.45;;
49858;SDS011;35756;52.346;13.622;2022-09-20T18:21:41;6.03;;;3.92;;
49858;SDS011;35756;52.346;13.622;2022-09-20T18:24:08;7.07;;;4.63;;
49858;SDS011;35756;52.346;13.622;2022-09-20T18:26:34;6.97;;;4.30;;
49858;SDS011;35756;52.346;13.622;2022-09-20T18:29:02;6.35;;;4.57;;
49858;SDS011;35756;52.346;13.622;2022-09-20T18:31:33;6.20;;;4.35;;